sensor_id;sensor_type;location;lat;lon;timestamp;P1;durP1;ratioP1;P2;durP2;ratioP2
16512;SDS011;8369;48.030;11.598;2023-04-25T00:01:53;2.67;;;1.90;;
16512;SDS011;8369;48.030;11.598;2023-04-25T00:04:19;2.87;;;2.10;;
16512;SDS011;8369;48.030;11.598;2023-04-25T00:06:49;4.77;;;1.70;;
16512;SDS011;8369;48.030;11.598;2023-04-25T00:09:17;3.07;;;2.13;;
16512;SDS011;8369;48.030;11.598;2023-04-25T00:11:43;3.13;;;1.80;;
16512;SDS011;8369;48.030;11.598;2023-04-25T00:14:10;2.50;;;1.83;;
16512;SDS011;8369;48.030;11.598;2023-04-25T00:16:36;2.37;;;1.73;;
16512;SDS011;8369;48.030;11.598;2023-04-25T00:19:02;2.60;;;2.03;;
16512;SDS011;8369;48.030;11.598;2023-04-25T00:21:28;3.07;;;1.97;;
16512;SDS011;8369;48.030;11.598;2023-04-25T00:23:56;1.97;;;1.63;;
16512;SDS011;8369;48.030;11.598;2023-04-25T00:26:22;1.67;;;1.57;;
16512;SDS011;8369;48.030;11.598;2023-04-25T00:28:48;2.37;;;1.70;;
16512;SDS011;8369;48.030;11.598;2023-04-25T00:31:15;3.50;;;1.80;;
16512;SDS011;8369;48.030;11.598;2023-04-25T00:33:41;2.60;;;2.03;;
16512;SDS011;8369;48.030;11.598;2023-04-25T00:36:08;2.37;;;1.80;;
16512;SDS011;8369;48.030;11.598;2023-04-25T00:38:34;2.43;;;1.97;;
16512;SDS011;8369;48.030;11.598;2023-04-25T00:41:01;2.40;;;1.80;;
16512;SDS011;8369;48.030;11.598;2023-04-25T00:43:27;2.17;;;1.97;;
16512;SDS011;8369;48.030;11.598;2023-04-25T00:45:55;1.93;;;1.80;;
16512;SDS011;8369;48.030;11.598;2023-04-25T00:48:22;2.30;;;2.00;;
16512;SDS011;8369;48.030;11.598;2023-04-25T00:50:52;2.37;;;1.97;;
16512;SDS011;8369;48.030;11.598;2023-04-25T00:53:23;2.40;;;2.00;;
16512;SDS011;8369;48.030;11.598;2023-04-25T00:55:53;3.13;;;2.10;;
16512;SDS011;8369;48.030;11.598;2023-04-25T00:58:20;2.47;;;1.97;;
16512;SDS011;8369;48.030;11.598;2023-04-25T01:00:48;4.30;;;2.03;;
16512;SDS011;8369;48.030;11.598;2023-04-25T01:03:17;2.77;;;1.90;;
16512;SDS011;8369;48.030;11.598;2023-04-25T01:05:46;2.67;;;2.27;;
16512;SDS011;8369;48.030;11.598;2023-04-25T01:08:14;3.77;;;2.07;;
16512;SDS011;8369;48.030;11.598;2023-04-25T01:10:41;2.77;;;1.93;;
16512;SDS011;8369;48.030;11.598;2023-04-25T01:13:07;2.10;;;1.90;;
16512;SDS011;8369;48.030;11.598;2023-04-25T01:15:34;2.20;;;2.00;;
16512;SDS011;8369;48.030;11.598;2023-04-25T01:18:02;2.63;;;1.67;;
16512;SDS011;8369;48.030;11.598;2023-04-25T01:20:29;4.90;;;2.00;;
16512;SDS011;8369;48.030;11.598;2023-04-25T01:22:58;2.10;;;1.90;;
16512;SDS011;8369;48.030;11.598;2023-04-25T01:25:27;2.93;;;2.17;;
16512;SDS011;8369;48.030;11.598;2023-04-25T01:27:53;2.90;;;2.20;;
16512;SDS011;8369;48.030;11.598;2023-04-25T01:30:20;3.43;;;2.60;;
16512;SDS011;8369;48.030;11.598;2023-04-25T01:32:47;3.20;;;2.60;;
16512;SDS011;8369;48.030;11.598;2023-04-25T01:35:15;4.20;;;2.37;;
16512;SDS011;8369;48.030;11.598;2023-04-25T01:37:42;3.73;;;2.30;;
16512;SDS011;8369;48.030;11.598;2023-04-25T01:40:09;4.20;;;2.30;;
16512;SDS011;8369;48.030;11.598;2023-04-25T01:42:37;2.57;;;2.33;;
16512;SDS011;8369;48.030;11.598;2023-04-25T01:45:06;4.70;;;2.00;;
16512;SDS011;8369;48.030;11.598;2023-04-25T01:47:33;2.87;;;1.90;;
16512;SDS011;8369;48.030;11.598;2023-04-25T01:50:04;3.50;;;2.20;;
16512;SDS011;8369;48.030;11.598;2023-04-25T01:52:33;2.57;;;1.90;;
16512;SDS011;8369;48.030;11.598;2023-04-25T01:55:00;4.87;;;2.00;;
16512;SDS011;8369;48.030;11.598;2023-04-25T01:57:28;2.20;;;1.87;;
16512;SDS011;8369;48.030;11.598;2023-04-25T01:59:58;2.40;;;1.77;;
16512;SDS011;8369;48.030;11.598;2023-04-25T02:02:26;2.10;;;1.90;;
16512;SDS011;8369;48.030;11.598;2023-04-25T02:04:53;2.57;;;1.87;;
16512;SDS011;8369;48.030;11.598;2023-04-25T02:07:20;1.90;;;1.80;;
16512;SDS011;8369;48.030;11.598;2023-04-25T02:09:59;2.73;;;1.90;;
16512;SDS011;8369;48.030;11.598;2023-04-25T02:12:27;2.23;;;1.90;;
16512;SDS011;8369;48.030;11.598;2023-04-25T02:14:53;3.83;;;1.83;;
16512;SDS011;8369;48.030;11.598;2023-04-25T02:17:21;5.00;;;2.07;;
16512;SDS011;8369;48.030;11.598;2023-04-25T02:19:48;2.73;;;1.70;;
16512;SDS011;8369;48.030;11.598;2023-04-25T02:22:17;2.40;;;2.07;;
16512;SDS011;8369;48.030;11.598;2023-04-25T02:24:43;2.07;;;1.80;;
16512;SDS011;8369;48.030;11.598;2023-04-25T02:27:10;2.40;;;2.00;;
16512;SDS011;8369;48.030;11.598;2023-04-25T02:29:37;2.40;;;1.90;;
16512;SDS011;8369;48.030;11.598;2023-04-25T02:32:04;2.47;;;2.00;;
16512;SDS011;8369;48.030;11.598;2023-04-25T02:34:30;2.03;;;1.80;;
16512;SDS011;8369;48.030;11.598;2023-04-25T02:36:57;2.20;;;2.00;;
16512;SDS011;8369;48.030;11.598;2023-04-25T02:39:25;2.77;;;1.83;;
16512;SDS011;8369;48.030;11.598;2023-04-25T02:41:52;10.57;;;2.30;;
16512;SDS011;8369;48.030;11.598;2023-04-25T02:44:21;2.83;;;2.27;;
16512;SDS011;8369;48.030;11.598;2023-04-25T02:46:47;4.07;;;2.20;;
16512;SDS011;8369;48.030;11.598;2023-04-25T02:49:14;2.77;;;2.20;;
16512;SDS011;8369;48.030;11.598;2023-04-25T02:51:40;3.23;;;2.40;;
16512;SDS011;8369;48.030;11.598;2023-04-25T02:54:07;2.87;;;2.20;;
16512;SDS011;8369;48.030;11.598;2023-04-25T02:56:33;3.20;;;2.30;;
16512;SDS011;8369;48.030;11.598;2023-04-25T02:58:59;3.80;;;2.43;;
16512;SDS011;8369;48.030;11.598;2023-04-25T03:01:28;4.27;;;2.37;;
16512;SDS011;8369;48.030;11.598;2023-04-25T03:03:55;4.00;;;2.00;;
16512;SDS011;8369;48.030;11.598;2023-04-25T03:06:21;2.07;;;1.87;;
16512;SDS011;8369;48.030;11.598;2023-04-25T03:08:50;2.20;;;1.97;;
16512;SDS011;8369;48.030;11.598;2023-04-25T03:11:17;4.57;;;2.10;;
16512;SDS011;8369;48.030;11.598;2023-04-25T03:13:45;3.07;;;2.20;;
16512;SDS011;8369;48.030;11.598;2023-04-25T03:16:11;5.63;;;2.27;;
16512;SDS011;8369;48.030;11.598;2023-04-25T03:18:37;2.97;;;2.27;;
16512;SDS011;8369;48.030;11.598;2023-04-25T03:21:04;3.77;;;2.43;;
16512;SDS011;8369;48.030;11.598;2023-04-25T03:23:30;3.43;;;1.70;;
16512;SDS011;8369;48.030;11.598;2023-04-25T03:25:56;2.50;;;1.90;;
16512;SDS011;8369;48.030;11.598;2023-04-25T03:28:22;3.17;;;1.80;;
16512;SDS011;8369;48.030;11.598;2023-04-25T03:30:48;4.93;;;2.00;;
16512;SDS011;8369;48.030;11.598;2023-04-25T03:33:14;2.27;;;1.80;;
16512;SDS011;8369;48.030;11.598;2023-04-25T03:35:40;4.07;;;1.67;;
16512;SDS011;8369;48.030;11.598;2023-04-25T03:38:07;5.57;;;2.40;;
16512;SDS011;8369;48.030;11.598;2023-04-25T03:40:34;2.33;;;1.90;;
16512;SDS011;8369;48.030;11.598;2023-04-25T03:43:00;1.50;;;1.40;;
16512;SDS011;8369;48.030;11.598;2023-04-25T03:45:26;2.43;;;1.93;;
16512;SDS011;8369;48.030;11.598;2023-04-25T03:47:52;2.93;;;1.73;;
16512;SDS011;8369;48.030;11.598;2023-04-25T03:50:19;2.60;;;1.87;;
16512;SDS011;8369;48.030;11.598;2023-04-25T03:52:46;3.53;;;2.10;;
16512;SDS011;8369;48.030;11.598;2023-04-25T03:55:11;2.47;;;1.70;;
16512;SDS011;8369;48.030;11.598;2023-04-25T03:57:37;3.37;;;1.90;;
16512;SDS011;8369;48.030;11.598;2023-04-25T04:00:03;2.33;;;2.00;;
16512;SDS011;8369;48.030;11.598;2023-04-25T04:02:31;2.87;;;2.37;;
16512;SDS011;8369;48.030;11.598;2023-04-25T04:04:59;2.80;;;1.87;;
16512;SDS011;8369;48.030;11.598;2023-04-25T04:07:26;1.73;;;1.53;;
16512;SDS011;8369;48.030;11.598;2023-04-25T04:09:53;2.17;;;1.80;;
16512;SDS011;8369;48.030;11.598;2023-04-25T04:12:19;5.40;;;1.80;;
16512;SDS011;8369;48.030;11.598;2023-04-25T04:14:46;2.83;;;1.90;;
16512;SDS011;8369;48.030;11.598;2023-04-25T04:17:12;2.20;;;1.87;;
16512;SDS011;8369;48.030;11.598;2023-04-25T04:19:39;2.57;;;1.77;;
16512;SDS011;8369;48.030;11.598;2023-04-25T04:22:05;2.07;;;1.87;;
16512;SDS011;8369;48.030;11.598;2023-04-25T04:24:31;3.70;;;1.80;;
16512;SDS011;8369;48.030;11.598;2023-04-25T04:26:57;2.17;;;1.67;;
16512;SDS011;8369;48.030;11.598;2023-04-25T04:29:24;4.33;;;2.70;;
16512;SDS011;8369;48.030;11.598;2023-04-25T04:31:51;2.90;;;2.40;;
16512;SDS011;8369;48.030;11.598;2023-04-25T04:34:17;2.30;;;2.10;;
16512;SDS011;8369;48.030;11.598;2023-04-25T04:36:44;2.93;;;2.00;;
16512;SDS011;8369;48.030;11.598;2023-04-25T04:39:12;1.97;;;1.87;;
16512;SDS011;8369;48.030;11.598;2023-04-25T04:41:39;1.80;;;1.70;;
16512;SDS011;8369;48.030;11.598;2023-04-25T04:44:06;2.57;;;2.00;;
16512;SDS011;8369;48.030;11.598;2023-04-25T04:46:32;1.70;;;1.60;;
16512;SDS011;8369;48.030;11.598;2023-04-25T04:49:10;3.47;;;2.13;;
16512;SDS011;8369;48.030;11.598;2023-04-25T04:51:37;2.43;;;1.87;;
16512;SDS011;8369;48.030;11.598;2023-04-25T04:54:03;3.10;;;2.03;;
16512;SDS011;8369;48.030;11.598;2023-04-25T04:56:30;2.90;;;1.80;;
16512;SDS011;8369;48.030;11.598;2023-04-25T04:58:56;2.57;;;2.07;;
16512;SDS011;8369;48.030;11.598;2023-04-25T05:01:23;3.20;;;2.07;;
16512;SDS011;8369;48.030;11.598;2023-04-25T05:03:49;3.00;;;2.00;;
16512;SDS011;8369;48.030;11.598;2023-04-25T05:06:16;3.47;;;1.80;;
16512;SDS011;8369;48.030;11.598;2023-04-25T05:08:44;2.70;;;1.83;;
16512;SDS011;8369;48.030;11.598;2023-04-25T05:11:10;1.83;;;1.67;;
16512;SDS011;8369;48.030;11.598;2023-04-25T05:13:43;6.00;;;2.10;;
16512;SDS011;8369;48.030;11.598;2023-04-25T05:16:10;4.13;;;2.07;;
16512;SDS011;8369;48.030;11.598;2023-04-25T05:18:37;4.53;;;2.10;;
16512;SDS011;8369;48.030;11.598;2023-04-25T05:21:04;4.13;;;2.03;;
16512;SDS011;8369;48.030;11.598;2023-04-25T05:23:30;2.63;;;1.90;;
16512;SDS011;8369;48.030;11.598;2023-04-25T05:25:57;1.97;;;1.77;;
16512;SDS011;8369;48.030;11.598;2023-04-25T05:28:25;2.93;;;1.80;;
16512;SDS011;8369;48.030;11.598;2023-04-25T05:30:53;3.47;;;1.90;;
16512;SDS011;8369;48.030;11.598;2023-04-25T05:37:32;3.90;;;1.90;;
16512;SDS011;8369;48.030;11.598;2023-04-25T05:40:04;2.70;;;1.87;;
16512;SDS011;8369;48.030;11.598;2023-04-25T05:42:40;3.17;;;1.97;;
16512;SDS011;8369;48.030;11.598;2023-04-25T06:01:05;3.33;;;2.00;;
16512;SDS011;8369;48.030;11.598;2023-04-25T06:03:38;2.93;;;1.87;;
16512;SDS011;8369;48.030;11.598;2023-04-25T06:06:30;2.77;;;1.77;;
16512;SDS011;8369;48.030;11.598;2023-04-25T06:08:57;2.07;;;1.77;;
16512;SDS011;8369;48.030;11.598;2023-04-25T06:11:52;2.60;;;1.70;;
16512;SDS011;8369;48.030;11.598;2023-04-25T06:14:20;3.10;;;2.17;;
16512;SDS011;8369;48.030;11.598;2023-04-25T06:16:48;3.53;;;2.30;;
16512;SDS011;8369;48.030;11.598;2023-04-25T06:19:14;3.37;;;2.20;;
16512;SDS011;8369;48.030;11.598;2023-04-25T06:21:41;2.80;;;1.90;;
16512;SDS011;8369;48.030;11.598;2023-04-25T06:24:08;2.30;;;1.90;;
16512;SDS011;8369;48.030;11.598;2023-04-25T06:26:34;3.27;;;2.20;;
16512;SDS011;8369;48.030;11.598;2023-04-25T06:29:02;3.83;;;2.20;;
16512;SDS011;8369;48.030;11.598;2023-04-25T06:31:35;5.00;;;2.20;;
16512;SDS011;8369;48.030;11.598;2023-04-25T06:34:01;3.40;;;2.20;;
16512;SDS011;8369;48.030;11.598;2023-04-25T06:36:30;4.67;;;2.20;;
16512;SDS011;8369;48.030;11.598;2023-04-25T06:38:56;2.47;;;2.23;;
16512;SDS011;8369;48.030;11.598;2023-04-25T06:41:23;3.93;;;2.27;;
16512;SDS011;8369;48.030;11.598;2023-04-25T06:43:48;2.80;;;2.50;;
16512;SDS011;8369;48.030;11.598;2023-04-25T06:46:14;6.70;;;2.30;;
16512;SDS011;8369;48.030;11.598;2023-04-25T06:48:41;3.20;;;2.20;;
16512;SDS011;8369;48.030;11.598;2023-04-25T06:51:08;4.47;;;2.30;;
16512;SDS011;8369;48.030;11.598;2023-04-25T06:53:34;4.17;;;2.00;;
16512;SDS011;8369;48.030;11.598;2023-04-25T06:55:59;3.67;;;2.17;;
16512;SDS011;8369;48.030;11.598;2023-04-25T06:58:25;2.93;;;2.30;;
16512;SDS011;8369;48.030;11.598;2023-04-25T07:00:51;3.50;;;2.20;;
16512;SDS011;8369;48.030;11.598;2023-04-25T07:03:18;3.23;;;2.37;;
16512;SDS011;8369;48.030;11.598;2023-04-25T07:05:51;4.13;;;2.50;;
16512;SDS011;8369;48.030;11.598;2023-04-25T07:08:17;4.00;;;2.40;;
16512;SDS011;8369;48.030;11.598;2023-04-25T07:10:43;8.13;;;2.70;;
16512;SDS011;8369;48.030;11.598;2023-04-25T07:13:11;4.50;;;2.27;;
16512;SDS011;8369;48.030;11.598;2023-04-25T07:15:37;2.40;;;2.20;;
16512;SDS011;8369;48.030;11.598;2023-04-25T07:18:03;3.27;;;2.57;;
16512;SDS011;8369;48.030;11.598;2023-04-25T07:20:32;3.80;;;2.20;;
16512;SDS011;8369;48.030;11.598;2023-04-25T07:22:57;5.60;;;2.40;;
16512;SDS011;8369;48.030;11.598;2023-04-25T07:25:23;3.23;;;2.40;;
16512;SDS011;8369;48.030;11.598;2023-04-25T07:27:49;7.13;;;2.60;;
16512;SDS011;8369;48.030;11.598;2023-04-25T07:30:18;6.20;;;2.80;;
16512;SDS011;8369;48.030;11.598;2023-04-25T07:33:02;4.33;;;2.40;;
16512;SDS011;8369;48.030;11.598;2023-04-25T07:35:38;2.90;;;2.30;;
16512;SDS011;8369;48.030;11.598;2023-04-25T07:38:09;3.40;;;2.27;;
16512;SDS011;8369;48.030;11.598;2023-04-25T07:40:35;3.53;;;2.40;;
16512;SDS011;8369;48.030;11.598;2023-04-25T07:43:04;4.47;;;2.47;;
16512;SDS011;8369;48.030;11.598;2023-04-25T07:45:37;3.40;;;2.30;;
16512;SDS011;8369;48.030;11.598;2023-04-25T07:48:04;11.00;;;2.53;;
16512;SDS011;8369;48.030;11.598;2023-04-25T07:50:29;2.90;;;2.23;;
16512;SDS011;8369;48.030;11.598;2023-04-25T07:52:59;4.00;;;2.60;;
16512;SDS011;8369;48.030;11.598;2023-04-25T07:55:25;3.43;;;2.10;;
16512;SDS011;8369;48.030;11.598;2023-04-25T07:57:51;6.67;;;2.87;;
16512;SDS011;8369;48.030;11.598;2023-04-25T08:00:17;3.20;;;2.30;;
16512;SDS011;8369;48.030;11.598;2023-04-25T08:02:46;6.13;;;2.40;;
16512;SDS011;8369;48.030;11.598;2023-04-25T08:05:12;4.00;;;2.47;;
16512;SDS011;8369;48.030;11.598;2023-04-25T08:07:40;2.93;;;2.30;;
16512;SDS011;8369;48.030;11.598;2023-04-25T08:10:06;2.67;;;1.97;;
16512;SDS011;8369;48.030;11.598;2023-04-25T08:12:33;3.30;;;2.20;;
16512;SDS011;8369;48.030;11.598;2023-04-25T08:14:59;2.83;;;2.10;;
16512;SDS011;8369;48.030;11.598;2023-04-25T08:17:25;2.47;;;1.80;;
16512;SDS011;8369;48.030;11.598;2023-04-25T08:19:51;1.70;;;1.60;;
16512;SDS011;8369;48.030;11.598;2023-04-25T08:22:16;4.00;;;1.97;;
16512;SDS011;8369;48.030;11.598;2023-04-25T08:24:42;1.60;;;1.50;;
16512;SDS011;8369;48.030;11.598;2023-04-25T08:27:08;2.73;;;1.80;;
16512;SDS011;8369;48.030;11.598;2023-04-25T08:29:34;3.77;;;2.20;;
16512;SDS011;8369;48.030;11.598;2023-04-25T08:32:01;3.23;;;2.00;;
16512;SDS011;8369;48.030;11.598;2023-04-25T08:34:27;3.23;;;1.90;;
16512;SDS011;8369;48.030;11.598;2023-04-25T08:37:02;4.40;;;1.80;;
16512;SDS011;8369;48.030;11.598;2023-04-25T08:39:29;4.00;;;2.10;;
16512;SDS011;8369;48.030;11.598;2023-04-25T08:41:55;2.60;;;2.00;;
16512;SDS011;8369;48.030;11.598;2023-04-25T08:44:22;4.07;;;2.10;;
16512;SDS011;8369;48.030;11.598;2023-04-25T08:46:49;3.03;;;2.00;;
16512;SDS011;8369;48.030;11.598;2023-04-25T08:49:17;3.20;;;1.83;;
16512;SDS011;8369;48.030;11.598;2023-04-25T08:51:50;2.90;;;2.13;;
16512;SDS011;8369;48.030;11.598;2023-04-25T08:54:17;3.07;;;1.97;;
16512;SDS011;8369;48.030;11.598;2023-04-25T08:56:48;2.50;;;1.80;;
16512;SDS011;8369;48.030;11.598;2023-04-25T08:59:14;2.73;;;2.23;;
16512;SDS011;8369;48.030;11.598;2023-04-25T09:01:40;3.97;;;2.50;;
16512;SDS011;8369;48.030;11.598;2023-04-25T09:04:06;2.70;;;1.90;;
16512;SDS011;8369;48.030;11.598;2023-04-25T09:06:33;2.00;;;1.80;;
16512;SDS011;8369;48.030;11.598;2023-04-25T09:09:03;2.40;;;1.90;;
16512;SDS011;8369;48.030;11.598;2023-04-25T09:11:34;2.77;;;1.90;;
16512;SDS011;8369;48.030;11.598;2023-04-25T09:14:11;4.63;;;2.20;;
16512;SDS011;8369;48.030;11.598;2023-04-25T09:19:26;4.73;;;2.40;;
16512;SDS011;8369;48.030;11.598;2023-04-25T09:22:02;4.27;;;2.03;;
16512;SDS011;8369;48.030;11.598;2023-04-25T09:24:33;2.80;;;1.60;;
16512;SDS011;8369;48.030;11.598;2023-04-25T09:26:59;2.50;;;1.97;;
16512;SDS011;8369;48.030;11.598;2023-04-25T09:29:30;7.27;;;1.77;;
16512;SDS011;8369;48.030;11.598;2023-04-25T09:34:46;3.17;;;2.10;;
16512;SDS011;8369;48.030;11.598;2023-04-25T09:37:19;5.80;;;2.10;;
16512;SDS011;8369;48.030;11.598;2023-04-25T09:39:47;3.47;;;2.07;;
16512;SDS011;8369;48.030;11.598;2023-04-25T09:42:15;3.50;;;1.87;;
16512;SDS011;8369;48.030;11.598;2023-04-25T09:44:42;3.77;;;2.00;;
16512;SDS011;8369;48.030;11.598;2023-04-25T09:47:10;2.83;;;1.80;;
16512;SDS011;8369;48.030;11.598;2023-04-25T09:49:43;4.23;;;2.00;;
16512;SDS011;8369;48.030;11.598;2023-04-25T09:52:10;5.40;;;2.23;;
16512;SDS011;8369;48.030;11.598;2023-04-25T09:54:41;2.33;;;2.00;;
16512;SDS011;8369;48.030;11.598;2023-04-25T09:57:19;2.60;;;1.93;;
16512;SDS011;8369;48.030;11.598;2023-04-25T09:59:51;3.70;;;2.07;;
16512;SDS011;8369;48.030;11.598;2023-04-25T10:02:19;3.47;;;1.60;;
16512;SDS011;8369;48.030;11.598;2023-04-25T10:04:51;2.50;;;2.00;;
16512;SDS011;8369;48.030;11.598;2023-04-25T10:07:20;2.10;;;1.90;;
16512;SDS011;8369;48.030;11.598;2023-04-25T10:09:58;1.63;;;1.53;;
16512;SDS011;8369;48.030;11.598;2023-04-25T10:12:34;2.70;;;1.90;;
16512;SDS011;8369;48.030;11.598;2023-04-25T10:15:01;1.63;;;1.53;;
16512;SDS011;8369;48.030;11.598;2023-04-25T10:17:28;2.40;;;1.80;;
16512;SDS011;8369;48.030;11.598;2023-04-25T10:19:54;5.00;;;1.80;;
16512;SDS011;8369;48.030;11.598;2023-04-25T10:22:23;2.13;;;1.50;;
16512;SDS011;8369;48.030;11.598;2023-04-25T10:24:56;1.60;;;1.50;;
16512;SDS011;8369;48.030;11.598;2023-04-25T10:27:22;2.43;;;1.80;;
16512;SDS011;8369;48.030;11.598;2023-04-25T10:30:05;2.50;;;1.63;;
16512;SDS011;8369;48.030;11.598;2023-04-25T10:32:38;2.87;;;1.60;;
16512;SDS011;8369;48.030;11.598;2023-04-25T10:35:14;2.33;;;1.73;;
16512;SDS011;8369;48.030;11.598;2023-04-25T10:40:34;2.83;;;1.80;;
16512;SDS011;8369;48.030;11.598;2023-04-25T10:44:02;2.47;;;1.93;;
16512;SDS011;8369;48.030;11.598;2023-04-25T10:45:56;1.73;;;1.60;;
16512;SDS011;8369;48.030;11.598;2023-04-25T10:48:26;2.43;;;1.83;;
16512;SDS011;8369;48.030;11.598;2023-04-25T10:51:06;3.03;;;1.70;;
16512;SDS011;8369;48.030;11.598;2023-04-25T10:53:36;1.70;;;1.60;;
16512;SDS011;8369;48.030;11.598;2023-04-25T10:56:09;2.47;;;1.90;;
16512;SDS011;8369;48.030;11.598;2023-04-25T10:58:45;3.83;;;1.70;;
16512;SDS011;8369;48.030;11.598;2023-04-25T11:01:12;3.07;;;1.40;;
16512;SDS011;8369;48.030;11.598;2023-04-25T11:03:40;1.80;;;1.40;;
16512;SDS011;8369;48.030;11.598;2023-04-25T11:06:11;2.67;;;1.80;;
16512;SDS011;8369;48.030;11.598;2023-04-25T11:09:19;3.03;;;1.70;;
16512;SDS011;8369;48.030;11.598;2023-04-25T11:11:54;2.80;;;1.73;;
16512;SDS011;8369;48.030;11.598;2023-04-25T11:14:21;1.80;;;1.50;;
16512;SDS011;8369;48.030;11.598;2023-04-25T11:16:52;2.13;;;1.70;;
16512;SDS011;8369;48.030;11.598;2023-04-25T11:19:25;2.43;;;1.60;;
16512;SDS011;8369;48.030;11.598;2023-04-25T11:21:58;3.63;;;2.03;;
16512;SDS011;8369;48.030;11.598;2023-04-25T11:24:28;2.67;;;1.83;;
16512;SDS011;8369;48.030;11.598;2023-04-25T11:26:55;2.03;;;1.80;;
16512;SDS011;8369;48.030;11.598;2023-04-25T11:29:23;3.50;;;1.70;;
16512;SDS011;8369;48.030;11.598;2023-04-25T11:31:52;2.00;;;1.53;;
16512;SDS011;8369;48.030;11.598;2023-04-25T11:34:18;2.37;;;1.63;;
16512;SDS011;8369;48.030;11.598;2023-04-25T11:36:44;1.93;;;1.60;;
16512;SDS011;8369;48.030;11.598;2023-04-25T11:39:11;2.87;;;1.60;;
16512;SDS011;8369;48.030;11.598;2023-04-25T11:41:43;1.93;;;1.47;;
16512;SDS011;8369;48.030;11.598;2023-04-25T11:44:20;1.67;;;1.53;;
16512;SDS011;8369;48.030;11.598;2023-04-25T11:47:02;2.60;;;1.40;;
16512;SDS011;8369;48.030;11.598;2023-04-25T11:49:30;3.03;;;1.40;;
16512;SDS011;8369;48.030;11.598;2023-04-25T11:51:59;2.33;;;1.67;;
16512;SDS011;8369;48.030;11.598;2023-04-25T11:54:28;1.50;;;1.40;;
16512;SDS011;8369;48.030;11.598;2023-04-25T11:56:54;1.90;;;1.70;;
16512;SDS011;8369;48.030;11.598;2023-04-25T11:59:24;2.80;;;2.00;;
16512;SDS011;8369;48.030;11.598;2023-04-25T12:01:50;2.10;;;1.90;;
16512;SDS011;8369;48.030;11.598;2023-04-25T12:04:17;2.60;;;1.80;;
16512;SDS011;8369;48.030;11.598;2023-04-25T12:06:54;3.03;;;2.20;;
16512;SDS011;8369;48.030;11.598;2023-04-25T12:09:29;6.70;;;2.50;;
16512;SDS011;8369;48.030;11.598;2023-04-25T12:11:57;4.13;;;2.40;;
16512;SDS011;8369;48.030;11.598;2023-04-25T12:14:27;2.20;;;1.97;;
16512;SDS011;8369;48.030;11.598;2023-04-25T12:16:59;4.97;;;2.00;;
16512;SDS011;8369;48.030;11.598;2023-04-25T12:19:26;3.00;;;2.10;;
16512;SDS011;8369;48.030;11.598;2023-04-25T12:21:58;3.10;;;1.90;;
16512;SDS011;8369;48.030;11.598;2023-04-25T12:24:26;2.50;;;1.90;;
16512;SDS011;8369;48.030;11.598;2023-04-25T12:26:53;2.97;;;1.80;;
16512;SDS011;8369;48.030;11.598;2023-04-25T12:29:27;2.27;;;1.80;;
16512;SDS011;8369;48.030;11.598;2023-04-25T12:31:56;1.53;;;1.43;;
16512;SDS011;8369;48.030;11.598;2023-04-25T12:34:27;1.50;;;1.40;;
16512;SDS011;8369;48.030;11.598;2023-04-25T12:36:53;4.17;;;1.70;;
16512;SDS011;8369;48.030;11.598;2023-04-25T12:39:24;1.57;;;1.47;;
16512;SDS011;8369;48.030;11.598;2023-04-25T12:41:51;2.10;;;1.80;;
16512;SDS011;8369;48.030;11.598;2023-04-25T12:44:20;1.93;;;1.40;;
16512;SDS011;8369;48.030;11.598;2023-04-25T12:46:46;1.70;;;1.50;;
16512;SDS011;8369;48.030;11.598;2023-04-25T12:49:13;1.60;;;1.50;;
16512;SDS011;8369;48.030;11.598;2023-04-25T12:51:39;1.60;;;1.40;;
16512;SDS011;8369;48.030;11.598;2023-04-25T12:54:06;2.03;;;1.20;;
16512;SDS011;8369;48.030;11.598;2023-04-25T12:56:33;1.33;;;1.20;;
16512;SDS011;8369;48.030;11.598;2023-04-25T12:59:00;1.30;;;1.20;;
16512;SDS011;8369;48.030;11.598;2023-04-25T13:01:28;2.37;;;1.40;;
16512;SDS011;8369;48.030;11.598;2023-04-25T13:03:54;2.57;;;1.23;;
16512;SDS011;8369;48.030;11.598;2023-04-25T13:06:20;1.97;;;1.40;;
16512;SDS011;8369;48.030;11.598;2023-04-25T13:08:47;1.20;;;1.10;;
16512;SDS011;8369;48.030;11.598;2023-04-25T13:11:13;1.20;;;1.10;;
16512;SDS011;8369;48.030;11.598;2023-04-25T13:13:44;1.30;;;1.10;;
16512;SDS011;8369;48.030;11.598;2023-04-25T13:16:12;1.20;;;1.10;;
16512;SDS011;8369;48.030;11.598;2023-04-25T13:18:41;0.97;;;0.97;;
16512;SDS011;8369;48.030;11.598;2023-04-25T13:21:07;0.97;;;0.97;;
16512;SDS011;8369;48.030;11.598;2023-04-25T13:23:37;1.33;;;1.10;;
16512;SDS011;8369;48.030;11.598;2023-04-25T13:26:03;1.10;;;1.00;;
16512;SDS011;8369;48.030;11.598;2023-04-25T13:28:29;1.00;;;0.90;;
16512;SDS011;8369;48.030;11.598;2023-04-25T13:30:55;1.23;;;1.10;;
16512;SDS011;8369;48.030;11.598;2023-04-25T13:33:21;0.87;;;0.87;;
16512;SDS011;8369;48.030;11.598;2023-04-25T13:35:47;0.90;;;0.90;;
16512;SDS011;8369;48.030;11.598;2023-04-25T13:38:22;0.73;;;0.73;;
16512;SDS011;8369;48.030;11.598;2023-04-25T13:40:49;1.17;;;1.07;;
16512;SDS011;8369;48.030;11.598;2023-04-25T13:43:17;1.30;;;1.20;;
16512;SDS011;8369;48.030;11.598;2023-04-25T13:45:49;1.00;;;1.00;;
16512;SDS011;8369;48.030;11.598;2023-04-25T13:48:16;1.83;;;1.47;;
16512;SDS011;8369;48.030;11.598;2023-04-25T13:50:43;1.73;;;1.00;;
16512;SDS011;8369;48.030;11.598;2023-04-25T13:53:09;1.20;;;1.10;;
16512;SDS011;8369;48.030;11.598;2023-04-25T13:55:35;1.03;;;1.00;;
16512;SDS011;8369;48.030;11.598;2023-04-25T13:58:03;1.33;;;1.20;;
16512;SDS011;8369;48.030;11.598;2023-04-25T14:00:34;1.40;;;1.30;;
16512;SDS011;8369;48.030;11.598;2023-04-25T14:03:03;1.07;;;0.90;;
16512;SDS011;8369;48.030;11.598;2023-04-25T14:05:32;2.07;;;1.40;;
16512;SDS011;8369;48.030;11.598;2023-04-25T14:08:03;0.90;;;0.90;;
16512;SDS011;8369;48.030;11.598;2023-04-25T14:10:30;1.03;;;0.90;;
16512;SDS011;8369;48.030;11.598;2023-04-25T14:12:56;1.30;;;1.20;;
16512;SDS011;8369;48.030;11.598;2023-04-25T14:15:22;1.00;;;0.90;;
16512;SDS011;8369;48.030;11.598;2023-04-25T14:17:55;1.70;;;1.10;;
16512;SDS011;8369;48.030;11.598;2023-04-25T14:20:21;2.40;;;1.20;;
16512;SDS011;8369;48.030;11.598;2023-04-25T14:22:49;0.93;;;0.90;;
16512;SDS011;8369;48.030;11.598;2023-04-25T14:25:17;0.87;;;0.87;;
16512;SDS011;8369;48.030;11.598;2023-04-25T14:27:43;0.90;;;0.90;;
16512;SDS011;8369;48.030;11.598;2023-04-25T14:30:15;0.80;;;0.80;;
16512;SDS011;8369;48.030;11.598;2023-04-25T14:32:43;1.00;;;0.90;;
16512;SDS011;8369;48.030;11.598;2023-04-25T14:35:10;1.17;;;1.00;;
16512;SDS011;8369;48.030;11.598;2023-04-25T14:37:37;1.20;;;1.10;;
16512;SDS011;8369;48.030;11.598;2023-04-25T14:40:04;2.83;;;1.70;;
16512;SDS011;8369;48.030;11.598;2023-04-25T14:42:32;2.23;;;1.17;;
16512;SDS011;8369;48.030;11.598;2023-04-25T14:44:59;2.00;;;1.60;;
16512;SDS011;8369;48.030;11.598;2023-04-25T14:47:25;1.33;;;1.00;;
16512;SDS011;8369;48.030;11.598;2023-04-25T14:49:57;1.00;;;1.00;;
16512;SDS011;8369;48.030;11.598;2023-04-25T14:52:23;1.57;;;1.20;;
16512;SDS011;8369;48.030;11.598;2023-04-25T14:54:50;1.13;;;1.10;;
16512;SDS011;8369;48.030;11.598;2023-04-25T14:57:16;4.17;;;2.50;;
16512;SDS011;8369;48.030;11.598;2023-04-25T14:59:43;1.23;;;1.13;;
16512;SDS011;8369;48.030;11.598;2023-04-25T15:02:08;1.10;;;1.00;;
16512;SDS011;8369;48.030;11.598;2023-04-25T15:04:35;1.23;;;1.10;;
16512;SDS011;8369;48.030;11.598;2023-04-25T15:07:03;1.77;;;1.60;;
16512;SDS011;8369;48.030;11.598;2023-04-25T15:09:29;0.80;;;0.80;;
16512;SDS011;8369;48.030;11.598;2023-04-25T15:11:56;1.43;;;1.20;;
16512;SDS011;8369;48.030;11.598;2023-04-25T15:14:23;2.77;;;1.13;;
16512;SDS011;8369;48.030;11.598;2023-04-25T15:16:50;0.77;;;0.77;;
16512;SDS011;8369;48.030;11.598;2023-04-25T15:19:18;0.70;;;0.70;;
16512;SDS011;8369;48.030;11.598;2023-04-25T15:21:45;1.17;;;1.07;;
16512;SDS011;8369;48.030;11.598;2023-04-25T15:24:13;1.00;;;1.00;;